sensor_id;sensor_type;location;lat;lon;timestamp;temperature;humidity
57218;DHT22;43078;52.972;6.482;2023-05-10T00:03:38;14.90;99.90
57218;DHT22;43078;52.972;6.482;2023-05-10T00:27:24;14.70;99.90
57218;DHT22;43078;52.972;6.482;2023-05-10T00:35:52;14.70;99.90
57218;DHT22;43078;52.972;6.482;2023-05-10T00:38:28;14.80;99.90
57218;DHT22;43078;52.972;6.482;2023-05-10T00:45:18;14.70;99.90
57218;DHT22;43078;52.972;6.482;2023-05-10T00:48:08;14.70;99.90
57218;DHT22;43078;52.972;6.482;2023-05-10T00:57:55;14.60;99.90
57218;DHT22;43078;52.972;6.482;2023-05-10T01:34:16;14.50;99.90
57218;DHT22;43078;52.972;6.482;2023-05-10T01:50:45;14.40;99.90
57218;DHT22;43078;52.972;6.482;2023-05-10T01:53:37;14.40;99.90
57218;DHT22;43078;52.972;6.482;2023-05-10T01:56:20;14.40;99.90
57218;DHT22;43078;52.972;6.482;2023-05-10T01:59:22;14.40;99.90
57218;DHT22;43078;52.972;6.482;2023-05-10T02:01:51;14.30;99.90
57218;DHT22;43078;52.972;6.482;2023-05-10T02:04:28;14.30;99.90
57218;DHT22;43078;52.972;6.482;2023-05-10T02:06:57;14.40;99.90
57218;DHT22;43078;52.972;6.482;2023-05-10T02:09:24;14.30;99.90
57218;DHT22;43078;52.972;6.482;2023-05-10T02:12:01;14.30;99.90
57218;DHT22;43078;52.972;6.482;2023-05-10T02:21:40;14.30;99.90
57218;DHT22;43078;52.972;6.482;2023-05-10T02:24:39;14.30;99.90
57218;DHT22;43078;52.972;6.482;2023-05-10T02:34:01;14.20;99.90
57218;DHT22;43078;52.972;6.482;2023-05-10T02:37:14;14.20;99.90
57218;DHT22;43078;52.972;6.482;2023-05-10T02:40:36;14.20;99.90
57218;DHT22;43078;52.972;6.482;2023-05-10T02:43:02;14.10;99.90
57218;DHT22;43078;52.972;6.482;2023-05-10T02:45:35;14.20;99.90
57218;DHT22;43078;52.972;6.482;2023-05-10T02:48:21;14.10;99.90
57218;DHT22;43078;52.972;6.482;2023-05-10T02:50:47;14.10;99.90
57218;DHT22;43078;52.972;6.482;2023-05-10T02:53:22;14.20;99.90
57218;DHT22;43078;52.972;6.482;2023-05-10T02:56:01;14.10;99.90
57218;DHT22;43078;52.972;6.482;2023-05-10T02:58:29;14.10;99.90
57218;DHT22;43078;52.972;6.482;2023-05-10T03:00:55;14.00;99.90
57218;DHT22;43078;52.972;6.482;2023-05-10T03:03:21;14.10;99.90
57218;DHT22;43078;52.972;6.482;2023-05-10T03:05:58;14.00;99.90
57218;DHT22;43078;52.972;6.482;2023-05-10T03:08:24;14.00;99.90
57218;DHT22;43078;52.972;6.482;2023-05-10T03:16:32;14.00;99.90
57218;DHT22;43078;52.972;6.482;2023-05-10T03:19:26;14.00;99.90
57218;DHT22;43078;52.972;6.482;2023-05-10T03:21:53;14.00;99.90
57218;DHT22;43078;52.972;6.482;2023-05-10T03:24:23;14.00;99.90
57218;DHT22;43078;52.972;6.482;2023-05-10T03:26:54;14.00;99.90
57218;DHT22;43078;52.972;6.482;2023-05-10T03:29:21;13.90;99.90
57218;DHT22;43078;52.972;6.482;2023-05-10T03:31:48;13.90;99.90
57218;DHT22;43078;52.972;6.482;2023-05-10T03:34:14;14.00;99.90
57218;DHT22;43078;52.972;6.482;2023-05-10T03:36:39;13.90;99.90
57218;DHT22;43078;52.972;6.482;2023-05-10T03:39:05;13.90;99.90
57218;DHT22;43078;52.972;6.482;2023-05-10T03:41:31;13.90;99.90
57218;DHT22;43078;52.972;6.482;2023-05-10T03:43:56;13.80;99.90
57218;DHT22;43078;52.972;6.482;2023-05-10T03:46:22;13.90;99.90
57218;DHT22;43078;52.972;6.482;2023-05-10T03:48:47;13.90;99.90
57218;DHT22;43078;52.972;6.482;2023-05-10T03:51:13;13.80;99.90
57218;DHT22;43078;52.972;6.482;2023-05-10T03:53:39;13.80;99.90
57218;DHT22;43078;52.972;6.482;2023-05-10T03:56:04;13.80;99.90
57218;DHT22;43078;52.972;6.482;2023-05-10T03:58:30;13.80;99.90
57218;DHT22;43078;52.972;6.482;2023-05-10T04:00:55;13.80;99.90
57218;DHT22;43078;52.972;6.482;2023-05-10T04:03:21;13.80;99.90
57218;DHT22;43078;52.972;6.482;2023-05-10T04:05:47;13.80;99.90
57218;DHT22;43078;52.972;6.482;2023-05-10T04:08:12;13.80;99.90
57218;DHT22;43078;52.972;6.482;2023-05-10T04:10:38;13.80;99.90
57218;DHT22;43078;52.972;6.482;2023-05-10T04:13:04;13.80;99.90
57218;DHT22;43078;52.972;6.482;2023-05-10T04:15:29;13.80;99.90
57218;DHT22;43078;52.972;6.482;2023-05-10T04:17:55;13.70;99.90
57218;DHT22;43078;52.972;6.482;2023-05-10T04:20:20;13.80;99.90
57218;DHT22;43078;52.972;6.482;2023-05-10T04:22:46;13.70;99.90
57218;DHT22;43078;52.972;6.482;2023-05-10T04:25:12;13.70;99.90
57218;DHT22;43078;52.972;6.482;2023-05-10T04:27:37;13.70;99.90
57218;DHT22;43078;52.972;6.482;2023-05-10T04:30:03;13.70;99.90
57218;DHT22;43078;52.972;6.482;2023-05-10T04:32:29;13.70;99.90
57218;DHT22;43078;52.972;6.482;2023-05-10T04:34:55;13.70;99.90
57218;DHT22;43078;52.972;6.482;2023-05-10T04:37:20;13.70;99.90
57218;DHT22;43078;52.972;6.482;2023-05-10T04:39:48;13.60;99.90
57218;DHT22;43078;52.972;6.482;2023-05-10T04:42:13;13.70;99.90
57218;DHT22;43078;52.972;6.482;2023-05-10T04:44:40;13.70;99.90
57218;DHT22;43078;52.972;6.482;2023-05-10T04:47:06;13.60;99.90
57218;DHT22;43078;52.972;6.482;2023-05-10T04:49:37;13.60;99.90
57218;DHT22;43078;52.972;6.482;2023-05-10T04:52:03;13.60;99.90
57218;DHT22;43078;52.972;6.482;2023-05-10T04:54:29;13.60;99.90
57218;DHT22;43078;52.972;6.482;2023-05-10T04:56:54;13.60;99.90
57218;DHT22;43078;52.972;6.482;2023-05-10T04:59:20;13.60;99.90
57218;DHT22;43078;52.972;6.482;2023-05-10T05:01:46;13.60;99.90
57218;DHT22;43078;52.972;6.482;2023-05-10T05:04:12;13.60;99.90
57218;DHT22;43078;52.972;6.482;2023-05-10T05:06:37;13.60;99.90
57218;DHT22;43078;52.972;6.482;2023-05-10T05:09:03;13.60;99.90
57218;DHT22;43078;52.972;6.482;2023-05-10T05:11:29;13.60;99.90
57218;DHT22;43078;52.972;6.482;2023-05-10T05:13:55;13.60;99.90
57218;DHT22;43078;52.972;6.482;2023-05-10T05:16:20;13.60;99.90
57218;DHT22;43078;52.972;6.482;2023-05-10T05:18:51;13.60;99.90
57218;DHT22;43078;52.972;6.482;2023-05-10T05:22:07;13.60;99.90
57218;DHT22;43078;52.972;6.482;2023-05-10T05:25:23;13.50;99.90
57218;DHT22;43078;52.972;6.482;2023-05-10T05:28:46;13.50;99.90
57218;DHT22;43078;52.972;6.482;2023-05-10T05:34:49;13.50;99.90
57218;DHT22;43078;52.972;6.482;2023-05-10T05:37:46;13.50;99.90
57218;DHT22;43078;52.972;6.482;2023-05-10T05:40:37;13.40;99.90
57218;DHT22;43078;52.972;6.482;2023-05-10T05:43:03;13.40;99.90
57218;DHT22;43078;52.972;6.482;2023-05-10T05:45:30;13.50;99.90
57218;DHT22;43078;52.972;6.482;2023-05-10T05:47:56;13.50;99.90
57218;DHT22;43078;52.972;6.482;2023-05-10T05:50:25;13.50;99.90
57218;DHT22;43078;52.972;6.482;2023-05-10T05:52:57;13.40;99.90
57218;DHT22;43078;52.972;6.482;2023-05-10T05:58:42;13.40;99.90
57218;DHT22;43078;52.972;6.482;2023-05-10T06:01:13;13.40;99.90
57218;DHT22;43078;52.972;6.482;2023-05-10T06:15:05;13.40;99.90
57218;DHT22;43078;52.972;6.482;2023-05-10T06:17:31;13.40;99.90
57218;DHT22;43078;52.972;6.482;2023-05-10T06:20:02;13.40;99.90
57218;DHT22;43078;52.972;6.482;2023-05-10T06:22:28;13.40;99.90
57218;DHT22;43078;52.972;6.482;2023-05-10T06:25:09;13.40;99.90
57218;DHT22;43078;52.972;6.482;2023-05-10T06:28:23;13.40;99.90
57218;DHT22;43078;52.972;6.482;2023-05-10T06:33:37;13.40;99.90
57218;DHT22;43078;52.972;6.482;2023-05-10T06:36:03;13.40;99.90
57218;DHT22;43078;52.972;6.482;2023-05-10T06:39:30;13.40;99.90
57218;DHT22;43078;52.972;6.482;2023-05-10T06:42:22;13.50;99.90
57218;DHT22;43078;52.972;6.482;2023-05-10T06:55:44;13.50;99.90
57218;DHT22;43078;52.972;6.482;2023-05-10T07:01:35;13.50;99.90
57218;DHT22;43078;52.972;6.482;2023-05-10T07:04:28;13.50;99.90
57218;DHT22;43078;52.972;6.482;2023-05-10T07:10:41;13.50;99.90
57218;DHT22;43078;52.972;6.482;2023-05-10T07:13:32;13.50;99.90
57218;DHT22;43078;52.972;6.482;2023-05-10T07:15:59;13.50;99.90
57218;DHT22;43078;52.972;6.482;2023-05-10T07:18:28;13.60;99.90
57218;DHT22;43078;52.972;6.482;2023-05-10T07:21:19;13.50;99.90
57218;DHT22;43078;52.972;6.482;2023-05-10T07:24:14;13.50;99.90
57218;DHT22;43078;52.972;6.482;2023-05-10T07:27:02;13.50;99.90
57218;DHT22;43078;52.972;6.482;2023-05-10T07:29:27;13.50;99.90
57218;DHT22;43078;52.972;6.482;2023-05-10T07:35:15;13.50;99.90
57218;DHT22;43078;52.972;6.482;2023-05-10T07:38:01;13.50;99.90
57218;DHT22;43078;52.972;6.482;2023-05-10T07:40:30;13.50;99.90
57218;DHT22;43078;52.972;6.482;2023-05-10T07:42:56;13.60;99.90
57218;DHT22;43078;52.972;6.482;2023-05-10T07:46:15;13.60;99.90
57218;DHT22;43078;52.972;6.482;2023-05-10T07:49:07;13.50;99.90
57218;DHT22;43078;52.972;6.482;2023-05-10T07:51:55;13.50;99.90
57218;DHT22;43078;52.972;6.482;2023-05-10T07:54:25;13.60;99.90
57218;DHT22;43078;52.972;6.482;2023-05-10T07:56:53;13.60;99.90
57218;DHT22;43078;52.972;6.482;2023-05-10T07:59:37;13.60;99.90
57218;DHT22;43078;52.972;6.482;2023-05-10T08:05:03;13.60;99.90
57218;DHT22;43078;52.972;6.482;2023-05-10T08:07:31;13.60;99.90
57218;DHT22;43078;52.972;6.482;2023-05-10T08:09:56;13.70;99.90
57218;DHT22;43078;52.972;6.482;2023-05-10T08:12:48;13.60;99.90
57218;DHT22;43078;52.972;6.482;2023-05-10T08:15:14;13.60;99.90
57218;DHT22;43078;52.972;6.482;2023-05-10T08:17:40;13.60;99.90
57218;DHT22;43078;52.972;6.482;2023-05-10T08:22:58;13.60;99.90
57218;DHT22;43078;52.972;6.482;2023-05-10T08:25:40;13.60;99.90
57218;DHT22;43078;52.972;6.482;2023-05-10T08:28:11;13.60;99.90
57218;DHT22;43078;52.972;6.482;2023-05-10T08:30:39;13.60;99.90
57218;DHT22;43078;52.972;6.482;2023-05-10T08:33:08;13.70;99.90
57218;DHT22;43078;52.972;6.482;2023-05-10T08:35:48;13.70;99.90
57218;DHT22;43078;52.972;6.482;2023-05-10T08:38:14;13.70;99.90
57218;DHT22;43078;52.972;6.482;2023-05-10T08:46:30;13.80;99.90
57218;DHT22;43078;52.972;6.482;2023-05-10T08:49:21;13.70;99.90
57218;DHT22;43078;52.972;6.482;2023-05-10T08:51:55;13.70;99.90
57218;DHT22;43078;52.972;6.482;2023-05-10T08:54:24;13.80;99.90
57218;DHT22;43078;52.972;6.482;2023-05-10T08:57:05;13.80;99.90
57218;DHT22;43078;52.972;6.482;2023-05-10T09:03:50;13.80;99.90
57218;DHT22;43078;52.972;6.482;2023-05-10T09:06:47;13.80;99.90
57218;DHT22;43078;52.972;6.482;2023-05-10T09:09:16;13.80;99.90
57218;DHT22;43078;52.972;6.482;2023-05-10T09:11:43;13.90;99.90
57218;DHT22;43078;52.972;6.482;2023-05-10T09:14:14;13.90;99.90
57218;DHT22;43078;52.972;6.482;2023-05-10T09:17:01;13.90;99.90
57218;DHT22;43078;52.972;6.482;2023-05-10T09:22:26;13.90;99.90
57218;DHT22;43078;52.972;6.482;2023-05-10T09:25:07;13.90;99.90
57218;DHT22;43078;52.972;6.482;2023-05-10T09:28:15;14.00;99.90
57218;DHT22;43078;52.972;6.482;2023-05-10T09:30:48;13.90;99.90
57218;DHT22;43078;52.972;6.482;2023-05-10T09:33:55;14.00;99.90
57218;DHT22;43078;52.972;6.482;2023-05-10T09:36:26;14.00;99.90
57218;DHT22;43078;52.972;6.482;2023-05-10T09:38:52;13.90;99.90
57218;DHT22;43078;52.972;6.482;2023-05-10T09:41:22;14.00;99.90
57218;DHT22;43078;52.972;6.482;2023-05-10T09:43:52;14.00;99.90
57218;DHT22;43078;52.972;6.482;2023-05-10T09:47:04;14.00;99.90
57218;DHT22;43078;52.972;6.482;2023-05-10T09:49:56;14.00;99.90
57218;DHT22;43078;52.972;6.482;2023-05-10T09:52:57;14.00;99.90
57218;DHT22;43078;52.972;6.482;2023-05-10T09:58:09;14.10;99.90
57218;DHT22;43078;52.972;6.482;2023-05-10T10:00:37;14.10;99.90
57218;DHT22;43078;52.972;6.482;2023-05-10T10:03:03;14.10;99.90
57218;DHT22;43078;52.972;6.482;2023-05-10T10:05:46;14.20;99.90
57218;DHT22;43078;52.972;6.482;2023-05-10T10:08:15;14.10;99.90
57218;DHT22;43078;52.972;6.482;2023-05-10T10:14:38;14.20;99.90
57218;DHT22;43078;52.972;6.482;2023-05-10T10:17:06;14.30;99.90
57218;DHT22;43078;52.972;6.482;2023-05-10T10:19:33;14.30;99.90
57218;DHT22;43078;52.972;6.482;2023-05-10T10:22:02;14.40;99.90
57218;DHT22;43078;52.972;6.482;2023-05-10T10:24:51;14.40;99.90
57218;DHT22;43078;52.972;6.482;2023-05-10T10:30:16;14.50;99.90
57218;DHT22;43078;52.972;6.482;2023-05-10T10:35:46;14.60;99.90
57218;DHT22;43078;52.972;6.482;2023-05-10T10:38:23;14.70;99.90
57218;DHT22;43078;52.972;6.482;2023-05-10T10:44:39;14.70;99.90
57218;DHT22;43078;52.972;6.482;2023-05-10T10:50:13;14.80;99.90
57218;DHT22;43078;52.972;6.482;2023-05-10T10:52:43;14.80;99.90
57218;DHT22;43078;52.972;6.482;2023-05-10T10:55:20;14.80;99.90
57218;DHT22;43078;52.972;6.482;2023-05-10T10:57:58;14.90;99.90
57218;DHT22;43078;52.972;6.482;2023-05-10T11:00:42;14.90;99.90
57218;DHT22;43078;52.972;6.482;2023-05-10T11:03:15;14.90;99.90
57218;DHT22;43078;52.972;6.482;2023-05-10T11:05:44;14.90;99.90
57218;DHT22;43078;52.972;6.482;2023-05-10T11:08:14;15.00;99.90
57218;DHT22;43078;52.972;6.482;2023-05-10T11:10:53;15.00;99.90
57218;DHT22;43078;52.972;6.482;2023-05-10T11:13:42;15.00;99.90
57218;DHT22;43078;52.972;6.482;2023-05-10T11:18:50;15.10;99.90
57218;DHT22;43078;52.972;6.482;2023-05-10T11:21:19;15.10;99.90
57218;DHT22;43078;52.972;6.482;2023-05-10T11:23:48;15.10;99.90
57218;DHT22;43078;52.972;6.482;2023-05-10T11:26:15;15.10;99.90
57218;DHT22;43078;52.972;6.482;2023-05-10T11:28:48;15.10;99.90
57218;DHT22;43078;52.972;6.482;2023-05-10T11:31:18;15.10;99.90
57218;DHT22;43078;52.972;6.482;2023-05-10T11:33:51;15.10;99.90
57218;DHT22;43078;52.972;6.482;2023-05-10T11:36:23;15.10;99.90
57218;DHT22;43078;52.972;6.482;2023-05-10T11:38:49;15.20;99.90
57218;DHT22;43078;52.972;6.482;2023-05-10T11:41:17;15.10;99.90
57218;DHT22;43078;52.972;6.482;2023-05-10T11:43:43;15.10;99.90
57218;DHT22;43078;52.972;6.482;2023-05-10T11:46:12;15.20;99.90
57218;DHT22;43078;52.972;6.482;2023-05-10T11:48:39;15.20;99.90
57218;DHT22;43078;52.972;6.482;2023-05-10T11:51:09;15.20;99.90
57218;DHT22;43078;52.972;6.482;2023-05-10T11:53:35;15.20;99.90
57218;DHT22;43078;52.972;6.482;2023-05-10T11:56:06;15.20;99.90
57218;DHT22;43078;52.972;6.482;2023-05-10T11:58:33;15.20;99.90
57218;DHT22;43078;52.972;6.482;2023-05-10T12:00:59;15.20;99.90
57218;DHT22;43078;52.972;6.482;2023-05-10T12:03:25;15.20;99.90
57218;DHT22;43078;52.972;6.482;2023-05-10T12:05:51;15.20;99.90
57218;DHT22;43078;52.972;6.482;2023-05-10T12:08:24;15.20;99.90
57218;DHT22;43078;52.972;6.482;2023-05-10T12:10:51;15.20;99.90
57218;DHT22;43078;52.972;6.482;2023-05-10T12:13:18;15.20;99.90
57218;DHT22;43078;52.972;6.482;2023-05-10T12:15:44;15.20;99.90
57218;DHT22;43078;52.972;6.482;2023-05-10T12:18:11;15.30;99.90
57218;DHT22;43078;52.972;6.482;2023-05-10T12:20:37;15.30;99.90
57218;DHT22;43078;52.972;6.482;2023-05-10T12:23:03;15.30;99.90
57218;DHT22;43078;52.972;6.482;2023-05-10T12:25:33;15.30;99.90
57218;DHT22;43078;52.972;6.482;2023-05-10T12:28:03;15.40;99.90
57218;DHT22;43078;52.972;6.482;2023-05-10T12:30:33;15.30;99.90
57218;DHT22;43078;52.972;6.482;2023-05-10T12:33:07;15.40;99.90
57218;DHT22;43078;52.972;6.482;2023-05-10T12:39:39;15.40;99.90
57218;DHT22;43078;52.972;6.482;2023-05-10T12:45:45;15.40;99.90
57218;DHT22;43078;52.972;6.482;2023-05-10T12:48:23;15.40;99.90
57218;DHT22;43078;52.972;6.482;2023-05-10T12:50:49;15.40;99.90
57218;DHT22;43078;52.972;6.482;2023-05-10T12:56:37;15.40;99.90
57218;DHT22;43078;52.972;6.482;2023-05-10T12:59:03;15.40;99.90
57218;DHT22;43078;52.972;6.482;2023-05-10T13:01:28;15.40;99.90
57218;DHT22;43078;52.972;6.482;2023-05-10T13:03:57;15.40;99.90
57218;DHT22;43078;52.972;6.482;2023-05-10T13:06:25;15.40;99.90
57218;DHT22;43078;52.972;6.482;2023-05-10T13:08:51;15.40;99.90
57218;DHT22;43078;52.972;6.482;2023-05-10T13:11:37;15.40;99.90
57218;DHT22;43078;52.972;6.482;2023-05-10T13:20:48;15.50;99.90
57218;DHT22;43078;52.972;6.482;2023-05-10T13:23:17;15.40;99.90
57218;DHT22;43078;52.972;6.482;2023-05-10T13:26:01;15.50;99.90
57218;DHT22;43078;52.972;6.482;2023-05-10T13:28:55;15.50;99.90
57218;DHT22;43078;52.972;6.482;2023-05-10T13:31:27;15.40;99.90
57218;DHT22;43078;52.972;6.482;2023-05-10T13:33:52;15.50;99.90
57218;DHT22;43078;52.972;6.482;2023-05-10T13:36:28;15.50;99.90
57218;DHT22;43078;52.972;6.482;2023-05-10T13:41:47;15.60;99.90
57218;DHT22;43078;52.972;6.482;2023-05-10T13:44:22;15.70;99.90
57218;DHT22;43078;52.972;6.482;2023-05-10T13:46:56;15.70;99.90
57218;DHT22;43078;52.972;6.482;2023-05-10T13:49:23;15.80;99.90
57218;DHT22;43078;52.972;6.482;2023-05-10T13:52:03;15.80;99.90
57218;DHT22;43078;52.972;6.482;2023-05-10T13:54:33;15.80;99.90
57218;DHT22;43078;52.972;6.482;2023-05-10T13:56:59;15.80;99.90
57218;DHT22;43078;52.972;6.482;2023-05-10T13:59:25;15.90;99.90
57218;DHT22;43078;52.972;6.482;2023-05-10T14:01:54;15.90;99.90
57218;DHT22;43078;52.972;6.482;2023-05-10T15:21:14;16.20;99.90
57218;DHT22;43078;52.972;6.482;2023-05-10T15:25:29;16.40;99.90
57218;DHT22;43078;52.972;6.482;2023-05-10T15:28:06;16.40;99.90
57218;DHT22;43078;52.972;6.482;2023-05-10T15:30:31;16.40;99.90
57218;DHT22;43078;52.972;6.482;2023-05-10T15:32:59;16.40;99.90
57218;DHT22;43078;52.972;6.482;2023-05-10T15:35:35;16.40;99.90
57218;DHT22;43078;52.972;6.482;2023-05-10T15:38:06;16.50;99.90
57218;DHT22;43078;52.972;6.482;2023-05-10T15:40:32;16.60;99.90
57218;DHT22;43078;52.972;6.482;2023-05-10T15:42:59;16.60;99.90
57218;DHT22;43078;52.972;6.482;2023-05-10T15:45:24;16.60;99.90
57218;DHT22;43078;52.972;6.482;2023-05-10T15:47:50;16.60;99.90
57218;DHT22;43078;52.972;6.482;2023-05-10T15:50:16;16.70;99.90
57218;DHT22;43078;52.972;6.482;2023-05-10T15:52:42;16.70;99.90
57218;DHT22;43078;52.972;6.482;2023-05-10T15:55:16;16.70;99.90
57218;DHT22;43078;52.972;6.482;2023-05-10T15:57:43;16.70;99.90
57218;DHT22;43078;52.972;6.482;2023-05-10T16:00:10;16.70;99.90
57218;DHT22;43078;52.972;6.482;2023-05-10T16:02:42;16.70;99.90
57218;DHT22;43078;52.972;6.482;2023-05-10T16:05:10;16.70;99.90
57218;DHT22;43078;52.972;6.482;2023-05-10T16:07:47;16.70;99.90
57218;DHT22;43078;52.972;6.482;2023-05-10T16:10:13;16.70;99.90
57218;DHT22;43078;52.972;6.482;2023-05-10T16:12:39;16.80;99.90
57218;DHT22;43078;52.972;6.482;2023-05-10T16:15:05;16.80;99.90
57218;DHT22;43078;52.972;6.482;2023-05-10T16:17:34;16.80;99.90
57218;DHT22;43078;52.972;6.482;2023-05-10T16:19:59;16.80;99.90
57218;DHT22;43078;52.972;6.482;2023-05-10T16:22:28;16.80;99.90
57218;DHT22;43078;52.972;6.482;2023-05-10T16:24:56;16.70;99.90
57218;DHT22;43078;52.972;6.482;2023-05-10T16:27:23;16.80;99.90
57218;DHT22;43078;52.972;6.482;2023-05-10T16:29:49;16.80;99.90
57218;DHT22;43078;52.972;6.482;2023-05-10T16:32:19;16.80;99.90
57218;DHT22;43078;52.972;6.482;2023-05-10T16:35:03;16.70;99.90
57218;DHT22;43078;52.972;6.482;2023-05-10T16:37:29;16.70;99.90
57218;DHT22;43078;52.972;6.482;2023-05-10T16:40:10;16.70;99.90
57218;DHT22;43078;52.972;6.482;2023-05-10T16:42:35;16.70;99.90
57218;DHT22;43078;52.972;6.482;2023-05-10T16:45:02;16.70;99.90
57218;DHT22;43078;52.972;6.482;2023-05-10T16:47:36;16.70;99.90
57218;DHT22;43078;52.972;6.482;2023-05-10T16:50:03;16.70;99.90
57218;DHT22;43078;52.972;6.482;2023-05-10T16:52:31;16.70;99.90
57218;DHT22;43078;52.972;6.482;2023-05-10T16:54:58;16.70;99.90
57218;DHT22;43078;52.972;6.482;2023-05-10T16:57:24;16.70;99.90
57218;DHT22;43078;52.972;6.482;2023-05-10T16:59:50;16.70;99.90
57218;DHT22;43078;52.972;6.482;2023-05-10T17:02:21;16.70;99.90
57218;DHT22;43078;52.972;6.482;2023-05-10T17:04:48;16.60;99.90
57218;DHT22;43078;52.972;6.482;2023-05-10T17:07:13;16.70;99.90
57218;DHT22;43078;52.972;6.482;2023-05-10T17:09:42;16.70;99.90
57218;DHT22;43078;52.972;6.482;2023-05-10T17:12:08;16.70;99.90
57218;DHT22;43078;52.972;6.482;2023-05-10T17:17:31;16.70;99.90
57218;DHT22;43078;52.972;6.482;2023-05-10T17:19:57;16.70;99.90
57218;DHT22;43078;52.972;6.482;2023-05-10T17:22:41;16.60;99.90
57218;DHT22;43078;52.972;6.482;2023-05-10T17:25:07;16.70;99.90
57218;DHT22;43078;52.972;6.482;2023-05-10T17:27:32;16.70;99.90
57218;DHT22;43078;52.972;6.482;2023-05-10T17:29:58;16.70;99.90
57218;DHT22;43078;52.972;6.482;2023-05-10T17:32:29;16.70;99.90
57218;DHT22;43078;52.972;6.482;2023-05-10T17:34:55;16.70;99.90
57218;DHT22;43078;52.972;6.482;2023-05-10T17:37:22;16.70;99.90
57218;DHT22;43078;52.972;6.482;2023-05-10T17:39:47;16.70;99.90
57218;DHT22;43078;52.972;6.482;2023-05-10T17:42:13;16.70;99.90
57218;DHT22;43078;52.972;6.482;2023-05-10T17:44:42;16.70;99.90
57218;DHT22;43078;52.972;6.482;2023-05-10T17:47:07;16.70;99.90
57218;DHT22;43078;52.972;6.482;2023-05-10T17:49:33;16.70;99.90
57218;DHT22;43078;52.972;6.482;2023-05-10T17:51:59;16.70;99.90
57218;DHT22;43078;52.972;6.482;2023-05-10T17:54:24;16.60;99.90
57218;DHT22;43078;52.972;6.482;2023-05-10T17:56:50;16.60;99.90
57218;DHT22;43078;52.972;6.482;2023-05-10T17:59:16;16.60;99.90
57218;DHT22;43078;52.972;6.482;2023-05-10T18:01:41;16.60;99.90
57218;DHT22;43078;52.972;6.482;2023-05-10T18:04:07;16.60;99.90
57218;DHT22;43078;52.972;6.482;2023-05-10T18:06:36;16.60;99.90
57218;DHT22;43078;52.972;6.482;2023-05-10T18:09:03;16.50;99.90
57218;DHT22;43078;52.972;6.482;2023-05-10T18:11:29;16.60;99.90
57218;DHT22;43078;52.972;6.482;2023-05-10T18:13:55;16.50;99.90
57218;DHT22;43078;52.972;6.482;2023-05-10T18:16:20;16.50;99.90
57218;DHT22;43078;52.972;6.482;2023-05-10T18:18:46;16.50;99.90
57218;DHT22;43078;52.972;6.482;2023-05-10T18:21:12;16.50;99.90
57218;DHT22;43078;52.972;6.482;2023-05-10T18:23:40;16.40;99.90
57218;DHT22;43078;52.972;6.482;2023-05-10T18:26:07;16.50;99.90
57218;DHT22;43078;52.972;6.482;2023-05-10T18:28:32;16.40;99.90
57218;DHT22;43078;52.972;6.482;2023-05-10T18:30:58;16.40;99.90
57218;DHT22;43078;52.972;6.482;2023-05-10T18:33:24;16.40;99.90
57218;DHT22;43078;52.972;6.482;2023-05-10T18:35:50;16.30;99.90
57218;DHT22;43078;52.972;6.482;2023-05-10T18:38:15;16.30;99.90
57218;DHT22;43078;52.972;6.482;2023-05-10T18:40:41;16.30;99.90
57218;DHT22;43078;52.972;6.482;2023-05-10T18:43:07;16.20;99.90
57218;DHT22;43078;52.972;6.482;2023-05-10T18:45:33;16.30;99.90
57218;DHT22;43078;52.972;6.482;2023-05-10T18:47:59;16.30;99.90
57218;DHT22;43078;52.972;6.482;2023-05-10T18:50:25;16.30;99.90
57218;DHT22;43078;52.972;6.482;2023-05-10T18:52:50;16.30;99.90
57218;DHT22;43078;52.972;6.482;2023-05-10T18:55:16;16.20;99.90
57218;DHT22;43078;52.972;6.482;2023-05-10T18:57:42;16.20;99.90
57218;DHT22;43078;52.972;6.482;2023-05-10T19:00:09;16.30;99.90
57218;DHT22;43078;52.972;6.482;2023-05-10T19:02:37;16.20;99.90
57218;DHT22;43078;52.972;6.482;2023-05-10T19:05:04;16.20;99.90
57218;DHT22;43078;52.972;6.482;2023-05-10T19:07:30;16.20;99.90
57218;DHT22;43078;52.972;6.482;2023-05-10T19:09:59;16.10;99.90
57218;DHT22;43078;52.972;6.482;2023-05-10T19:12:25;16.20;99.90
57218;DHT22;43078;52.972;6.482;2023-05-10T19:14:51;16.10;99.90
57218;DHT22;43078;52.972;6.482;2023-05-10T19:17:17;16.10;99.90
57218;DHT22;43078;52.972;6.482;2023-05-10T19:19:42;16.20;99.90
57218;DHT22;43078;52.972;6.482;2023-05-10T19:22:08;16.20;99.90
57218;DHT22;43078;52.972;6.482;2023-05-10T19:24:34;16.20;99.90
57218;DHT22;43078;52.972;6.482;2023-05-10T19:27:00;16.10;99.90
57218;DHT22;43078;52.972;6.482;2023-05-10T19:29:26;16.20;99.90
57218;DHT22;43078;52.972;6.482;2023-05-10T19:31:51;16.20;99.90
57218;DHT22;43078;52.972;6.482;2023-05-10T19:34:18;16.20;99.90
57218;DHT22;43078;52.972;6.482;2023-05-10T19:36:44;16.20;99.90
57218;DHT22;43078;52.972;6.482;2023-05-10T19:39:10;16.20;99.90
57218;DHT22;43078;52.972;6.482;2023-05-10T19:41:36;16.20;99.90
57218;DHT22;43078;52.972;6.482;2023-05-10T19:44:02;16.20;99.90
57218;DHT22;43078;52.972;6.482;2023-05-10T19:46:27;16.20;99.90
57218;DHT22;43078;52.972;6.482;2023-05-10T19:48:53;16.20;99.90
57218;DHT22;43078;52.972;6.482;2023-05-10T19:51:19;16.10;99.90
57218;DHT22;43078;52.972;6.482;2023-05-10T19:53:45;16.10;99.90
57218;DHT22;43078;52.972;6.482;2023-05-10T19:56:11;16.20;99.90
57218;DHT22;43078;52.972;6.482;2023-05-10T19:58:37;16.20;99.90
57218;DHT22;43078;52.972;6.482;2023-05-10T20:01:03;16.10;99.90
57218;DHT22;43078;52.972;6.482;2023-05-10T20:03:34;16.10;99.90
57218;DHT22;43078;52.972;6.482;2023-05-10T20:06:00;16.10;99.90
57218;DHT22;43078;52.972;6.482;2023-05-10T20:08:26;16.00;99.90
57218;DHT22;43078;52.972;6.482;2023-05-10T20:10:52;16.00;99.90
57218;DHT22;43078;52.972;6.482;2023-05-10T20:13:18;16.00;99.90
57218;DHT22;43078;52.972;6.482;2023-05-10T20:15:44;16.00;99.90
57218;DHT22;43078;52.972;6.482;2023-05-10T20:18:09;15.90;99.90
57218;DHT22;43078;52.972;6.482;2023-05-10T20:20:35;15.90;99.90
57218;DHT22;43078;52.972;6.482;2023-05-10T20:23:00;15.90;99.90
57218;DHT22;43078;52.972;6.482;2023-05-10T20:25:26;15.90;99.90
57218;DHT22;43078;52.972;6.482;2023-05-10T20:27:58;15.80;99.90
57218;DHT22;43078;52.972;6.482;2023-05-10T20:30:24;15.80;99.90
57218;DHT22;43078;52.972;6.482;2023-05-10T20:32:49;15.80;99.90
57218;DHT22;43078;52.972;6.482;2023-05-10T20:35:15;15.70;99.90
57218;DHT22;43078;52.972;6.482;2023-05-10T20:37:41;15.70;99.90
57218;DHT22;43078;52.972;6.482;2023-05-10T20:40:07;15.70;99.90
57218;DHT22;43078;52.972;6.482;2023-05-10T20:42:33;15.60;99.90
57218;DHT22;43078;52.972;6.482;2023-05-10T20:44:58;15.60;99.90
57218;DHT22;43078;52.972;6.482;2023-05-10T20:47:24;15.60;99.90
57218;DHT22;43078;52.972;6.482;2023-05-10T20:49:50;15.60;99.90